Time;durP1;ratioP1;P1;durP2;ratioP2;P2;SDS_P1;SDS_P2;PMS_P1;PMS_P2;Temp;Humidity;BMP_temperature;BMP_pressure;BME280_temperature;BME280_humidity;BME280_pressure;Samples;Min_cycle;Max_cycle;Signal;HPM_P1;HPM_P2
2022/07/22 00:01:50;;;;;;;6.38;3.45;;;;;;;;;;10274378;28;20494;-64
2022/07/22 00:06:48;;;;;;;4.00;3.60;;;;;;;;;;10273861;28;20187;-64
2022/07/22 00:11:48;;;;;;;7.13;3.60;;;;;;;;;;10273615;28;20068;-64
2022/07/22 00:16:47;;;;;;;6.65;3.22;;;;;;;;;;10267953;28;20077;-62
2022/07/22 00:21:45;;;;;;;5.00;3.65;;;;;;;;;;10272774;28;20049;-63
2022/07/22 00:26:43;;;;;;;5.18;3.90;;;;;;;;;;10272541;28;20497;-63
2022/07/22 00:31:43;;;;;;;6.53;3.45;;;;;;;;;;10272438;28;20111;-64
2022/07/22 00:36:42;;;;;;;4.47;3.22;;;;;;;;;;10271287;28;20568;-63
2022/07/22 00:41:40;;;;;;;4.40;3.40;;;;;;;;;;10271190;28;20091;-64
2022/07/22 00:46:39;;;;;;;5.85;4.50;;;;;;;;;;10272247;28;20064;-63
2022/07/22 00:51:40;;;;;;;6.40;3.53;;;;;;;;;;10270878;28;20057;-63
2022/07/22 00:56:39;;;;;;;5.82;3.50;;;;;;;;;;10271570;28;20478;-63
2022/07/22 01:01:37;;;;;;;5.30;3.55;;;;;;;;;;10270919;28;20067;-64
2022/07/22 01:06:35;;;;;;;10.30;4.13;;;;;;;;;;10269913;28;20037;-63
2022/07/22 01:11:35;;;;;;;4.05;3.65;;;;;;;;;;10268734;28;20076;-64
2022/07/22 01:16:34;;;;;;;11.25;4.30;;;;;;;;;;10270379;28;20069;-65
2022/07/22 01:21:34;;;;;;;7.47;4.07;;;;;;;;;;10268560;28;20045;-63
2022/07/22 01:26:33;;;;;;;9.68;3.83;;;;;;;;;;10267932;28;20041;-63
2022/07/22 01:31:32;;;;;;;8.75;3.85;;;;;;;;;;10267404;28;20041;-63
2022/07/22 01:36:30;;;;;;;4.00;3.45;;;;;;;;;;10270038;28;20506;-63
2022/07/22 01:41:30;;;;;;;9.77;4.22;;;;;;;;;;10270293;28;20056;-64
2022/07/22 01:46:29;;;;;;;14.90;7.82;;;;;;;;;;10270913;28;20045;-65
2022/07/22 01:51:27;;;;;;;17.05;7.90;;;;;;;;;;10268864;28;20049;-64
2022/07/22 01:56:26;;;;;;;10.18;5.30;;;;;;;;;;10268342;28;20080;-64
2022/07/22 02:01:25;;;;;;;5.57;4.40;;;;;;;;;;10267811;28;20423;-63
2022/07/22 02:06:24;;;;;;;5.13;4.05;;;;;;;;;;10268141;28;20076;-63
2022/07/22 02:11:26;;;;;;;7.60;4.38;;;;;;;;;;10268173;28;20091;-63
2022/07/22 02:16:29;;;;;;;7.90;4.00;;;;;;;;;;10269118;28;20073;-63
2022/07/22 02:21:28;;;;;;;7.57;4.22;;;;;;;;;;10252900;28;20463;-64
2022/07/22 02:26:31;;;;;;;11.43;4.53;;;;;;;;;;10253504;28;20041;-63
2022/07/22 02:31:31;;;;;;;6.07;4.13;;;;;;;;;;10267617;28;20163;-63
2022/07/22 02:36:29;;;;;;;9.98;4.55;;;;;;;;;;10268616;28;20483;-63
2022/07/22 02:41:28;;;;;;;7.15;4.43;;;;;;;;;;10252227;28;20072;-63
2022/07/22 02:46:28;;;;;;;6.43;4.32;;;;;;;;;;10266979;28;20060;-63
2022/07/22 02:51:32;;;;;;;6.72;4.07;;;;;;;;;;10269221;28;20045;-63
2022/07/22 02:56:31;;;;;;;11.52;4.00;;;;;;;;;;10266174;28;20529;-63
2022/07/22 03:01:30;;;;;;;7.90;4.07;;;;;;;;;;10264172;28;20060;-64
2022/07/22 03:06:32;;;;;;;6.07;4.88;;;;;;;;;;10267569;28;20095;-63
2022/07/22 03:11:52;;;;;;;5.93;3.92;;;;;;;;;;10272488;28;20080;-63
2022/07/22 03:16:51;;;;;;;10.77;4.55;;;;;;;;;;10274725;28;20056;-63
2022/07/22 03:21:53;;;;;;;10.43;4.82;;;;;;;;;;10271977;28;20045;-64
2022/07/22 03:26:52;;;;;;;6.32;4.20;;;;;;;;;;10252904;28;20120;-64
2022/07/22 03:31:51;;;;;;;9.13;4.22;;;;;;;;;;10252016;28;20474;-64
2022/07/22 03:37:04;;;;;;;5.45;4.53;;;;;;;;;;10272752;28;20081;-63
2022/07/22 03:42:03;;;;;;;5.68;4.82;;;;;;;;;;10273164;28;20068;-63
2022/07/22 03:47:07;;;;;;;11.50;4.70;;;;;;;;;;10272948;28;20073;-64
2022/07/22 03:52:07;;;;;;;11.50;4.75;;;;;;;;;;10271161;28;20073;-64
2022/07/22 03:57:08;;;;;;;12.90;7.47;;;;;;;;;;10270524;28;20064;-64
2022/07/22 04:02:06;;;;;;;5.72;4.30;;;;;;;;;;10273127;28;20115;-63
2022/07/22 04:07:07;;;;;;;8.50;5.22;;;;;;;;;;10272375;28;20072;-63
2022/07/22 04:12:07;;;;;;;12.15;5.53;;;;;;;;;;10271160;28;20488;-64
2022/07/22 04:17:17;;;;;;;12.68;6.15;;;;;;;;;;10273113;28;20102;-63
2022/07/22 04:22:16;;;;;;;12.15;7.00;;;;;;;;;;10273313;28;20044;-64
2022/07/22 04:27:15;;;;;;;10.90;6.68;;;;;;;;;;10272128;28;20071;-64
2022/07/22 04:32:14;;;;;;;14.18;6.35;;;;;;;;;;10270526;28;20488;-64
2022/07/22 04:37:13;;;;;;;25.30;8.80;;;;;;;;;;10271083;28;20080;-63
2022/07/22 04:42:15;;;;;;;10.93;5.40;;;;;;;;;;10271669;28;20152;-64
2022/07/22 04:47:16;;;;;;;10.65;5.65;;;;;;;;;;10260676;28;20083;-64
2022/07/22 04:52:16;;;;;;;8.70;5.90;;;;;;;;;;10266820;28;20079;-65
2022/07/22 04:57:20;;;;;;;12.23;4.72;;;;;;;;;;10269897;28;20501;-63
2022/07/22 05:02:20;;;;;;;7.55;4.43;;;;;;;;;;10267340;28;20091;-63
2022/07/22 05:07:18;;;;;;;8.52;4.45;;;;;;;;;;10270088;28;20060;-64
2022/07/22 05:12:17;;;;;;;5.35;3.70;;;;;;;;;;10270832;28;20447;-63
2022/07/22 05:17:19;;;;;;;7.00;4.47;;;;;;;;;;10259158;28;20494;-66
2022/07/22 05:22:31;;;;;;;9.05;3.63;;;;;;;;;;10266289;28;20525;-64
2022/07/22 05:27:38;;;;;;;11.43;8.77;;;;;;;;;;10269442;28;20514;-64
2022/07/22 05:32:38;;;;;;;8.27;4.25;;;;;;;;;;10268223;28;20083;-64
2022/07/22 05:37:37;;;;;;;8.00;4.07;;;;;;;;;;10269631;28;20501;-63
2022/07/22 05:42:35;;;;;;;13.65;3.03;;;;;;;;;;10268771;28;20037;-64
2022/07/22 05:47:34;;;;;;;5.63;3.03;;;;;;;;;;10269403;28;20060;-64
2022/07/22 05:52:36;;;;;;;7.40;3.17;;;;;;;;;;10268383;28;20076;-63
2022/07/22 05:57:35;;;;;;;5.68;2.83;;;;;;;;;;10267839;28;20061;-63
2022/07/22 06:02:34;;;;;;;7.20;1.80;;;;;;;;;;10269451;28;20081;-64
2022/07/22 06:07:33;;;;;;;5.25;2.70;;;;;;;;;;10267980;28;20079;-65
2022/07/22 06:12:33;;;;;;;4.18;2.22;;;;;;;;;;10268622;28;20430;-65
2022/07/22 06:17:32;;;;;;;5.03;1.80;;;;;;;;;;10268744;28;20068;-64
2022/07/22 06:22:33;;;;;;;6.65;1.85;;;;;;;;;;10271249;28;20107;-64
2022/07/22 06:27:32;;;;;;;6.35;1.60;;;;;;;;;;10262541;28;20065;-63
2022/07/22 06:32:31;;;;;;;5.97;2.15;;;;;;;;;;10266076;28;20092;-63
2022/07/22 06:37:30;;;;;;;4.65;1.65;;;;;;;;;;10267881;28;20532;-64
2022/07/22 06:42:50;;;;;;;5.35;2.03;;;;;;;;;;10266292;28;20095;-62
2022/07/22 06:48:12;;;;;;;5.03;1.73;;;;;;;;;;10276311;28;20077;-63
2022/07/22 06:53:10;;;;;;;6.88;1.80;;;;;;;;;;10274077;28;20069;-65
2022/07/22 06:58:12;;;;;;;3.30;2.03;;;;;;;;;;10276195;28;20548;-65
2022/07/22 07:03:10;;;;;;;11.02;1.83;;;;;;;;;;10274626;28;20080;-63
2022/07/22 07:08:33;;;;;;;17.63;2.67;;;;;;;;;;10285163;28;20103;-64
2022/07/22 07:13:34;;;;;;;6.80;1.75;;;;;;;;;;10258227;28;20076;-64
2022/07/22 07:18:33;;;;;;;7.45;1.70;;;;;;;;;;10268294;28;20076;-64
2022/07/22 07:23:33;;;;;;;6.82;2.10;;;;;;;;;;10264709;28;20057;-64
2022/07/22 07:28:32;;;;;;;2.25;1.67;;;;;;;;;;10262413;28;20080;-64
2022/07/22 07:33:37;;;;;;;4.75;1.90;;;;;;;;;;10264110;28;20748;-65
2022/07/22 07:38:35;;;;;;;4.63;1.83;;;;;;;;;;10266479;28;20072;-64
2022/07/22 07:43:38;;;;;;;6.32;1.40;;;;;;;;;;10274358;28;20045;-64
2022/07/22 07:48:38;;;;;;;4.00;1.23;;;;;;;;;;10264094;28;20041;-64
2022/07/22 07:53:36;;;;;;;7.13;1.70;;;;;;;;;;10268178;28;20072;-68
2022/07/22 07:58:35;;;;;;;1.55;1.20;;;;;;;;;;10275098;28;20072;-65
2022/07/22 08:03:39;;;;;;;2.72;1.30;;;;;;;;;;10259705;28;20475;-65
2022/07/22 08:08:38;;;;;;;7.20;2.05;;;;;;;;;;10271810;28;20076;-64
2022/07/22 08:13:44;;;;;;;3.10;1.45;;;;;;;;;;10255290;28;20549;-66
2022/07/22 08:19:19;;;;;;;2.38;1.40;;;;;;;;;;10245686;28;20499;-66
2022/07/22 08:24:18;;;;;;;7.22;1.70;;;;;;;;;;10263298;28;20095;-66
2022/07/22 08:29:16;;;;;;;2.85;1.17;;;;;;;;;;10275574;28;20045;-64
2022/07/22 08:34:15;;;;;;;4.18;1.45;;;;;;;;;;10264970;28;20053;-64
2022/07/22 08:39:15;;;;;;;6.07;3.22;;;;;;;;;;10273258;28;20084;-65
2022/07/22 08:44:21;;;;;;;6.22;3.17;;;;;;;;;;10269159;28;20084;-64
2022/07/22 08:49:21;;;;;;;7.65;5.72;;;;;;;;;;10271254;28;20091;-65
2022/07/22 08:54:37;;;;;;;7.40;3.88;;;;;;;;;;10268240;28;20095;-65
2022/07/22 08:59:49;;;;;;;3.47;2.05;;;;;;;;;;10266681;28;20072;-65
2022/07/22 09:04:52;;;;;;;5.43;3.03;;;;;;;;;;10267380;28;20063;-65
2022/07/22 09:09:51;;;;;;;;;;;;;;;;;;10267214;28;20049;-66
2022/07/22 09:15:09;;;;;;;9.98;2.55;;;;;;;;;;10275177;28;20347;-66
2022/07/22 09:20:23;;;;;;;6.70;3.13;;;;;;;;;;10268331;28;20522;-66
2022/07/22 09:25:58;;;;;;;6.43;2.08;;;;;;;;;;10270716;28;20081;-65
2022/07/22 09:31:01;;;;;;;7.10;3.00;;;;;;;;;;10272824;28;20073;-65
2022/07/22 09:36:07;;;;;;;2.95;2.00;;;;;;;;;;10268898;28;20037;-66
2022/07/22 09:41:07;;;;;;;2.88;2.20;;;;;;;;;;10269218;28;20092;-65
2022/07/22 09:46:08;;;;;;;6.22;2.28;;;;;;;;;;10271456;28;20056;-66
2022/07/22 09:51:24;;;;;;;5.13;1.75;;;;;;;;;;10284818;28;20330;-64
2022/07/22 09:56:49;;;;;;;7.13;2.10;;;;;;;;;;10270826;28;20084;-65
2022/07/22 10:01:51;;;;;;;7.32;2.20;;;;;;;;;;10269238;28;20073;-65
2022/07/22 10:06:51;;;;;;;6.00;2.47;;;;;;;;;;10267995;28;20060;-64
2022/07/22 10:11:52;;;;;;;4.60;1.77;;;;;;;;;;10266349;28;20084;-64
2022/07/22 10:16:55;;;;;;;9.57;3.13;;;;;;;;;;10260004;28;20073;-65
2022/07/22 10:21:54;;;;;;;5.13;1.95;;;;;;;;;;10275431;28;20068;-65
2022/07/22 10:26:55;;;;;;;3.22;1.70;;;;;;;;;;10277461;28;20579;-65
2022/07/22 10:32:08;;;;;;;5.88;2.30;;;;;;;;;;10276228;28;20081;-65
2022/07/22 10:37:37;;;;;;;3.72;1.52;;;;;;;;;;10276249;28;20072;-65
2022/07/22 10:42:50;;;;;;;3.65;1.80;;;;;;;;;;10276466;28;20065;-65
2022/07/22 10:47:55;;;;;;;4.50;2.40;;;;;;;;;;10272923;28;20072;-65
2022/07/22 10:52:56;;;;;;;2.60;1.75;;;;;;;;;;10276611;28;20107;-65
2022/07/22 10:57:54;;;;;;;3.10;1.60;;;;;;;;;;10276159;28;20084;-64
2022/07/22 11:02:53;;;;;;;5.90;2.85;;;;;;;;;;10274407;28;20065;-64
2022/07/22 11:07:51;;;;;;;7.43;1.77;;;;;;;;;;10274357;28;20072;-63
2022/07/22 11:12:51;;;;;;;2.65;1.85;;;;;;;;;;10271949;28;20495;-62
2022/07/22 11:17:49;;;;;;;2.92;1.85;;;;;;;;;;10274789;28;20081;-64
2022/07/22 11:22:48;;;;;;;5.82;1.80;;;;;;;;;;10274944;28;20463;-65
2022/07/22 11:27:51;;;;;;;5.45;1.63;;;;;;;;;;10275703;28;20072;-64
2022/07/22 11:32:49;;;;;;;;;;;;;;;;;;10273052;28;20095;-65
2022/07/22 11:37:56;;;;;;;5.28;2.00;;;;;;;;;;10270961;28;19972;-66
2022/07/22 11:43:02;;;;;;;3.05;2.13;;;;;;;;;;10271979;28;20068;-65
2022/07/22 11:48:08;;;;;;;1.73;1.58;;;;;;;;;;10271576;28;20513;-64
2022/07/22 11:53:07;;;;;;;5.07;2.50;;;;;;;;;;10273094;28;20076;-64
2022/07/22 11:58:07;;;;;;;8.45;2.00;;;;;;;;;;10275136;28;20069;-64
2022/07/22 12:03:05;;;;;;;2.45;1.98;;;;;;;;;;10271252;28;20057;-64
2022/07/22 12:08:03;;;;;;;6.00;1.98;;;;;;;;;;10271599;28;20489;-64
2022/07/22 12:13:02;;;;;;;10.32;2.80;;;;;;;;;;10270976;28;20080;-64
2022/07/22 12:23:26;;;;;;;3.13;1.83;;;;;;;;;;10288789;27;20414;-63
2022/07/22 12:28:25;;;;;;;6.95;2.42;;;;;;;;;;10285761;28;20076;-64
2022/07/22 12:33:23;;;;;;;8.77;2.03;;;;;;;;;;10284563;28;20080;-64
2022/07/22 12:38:22;;;;;;;4.93;1.90;;;;;;;;;;10287083;28;20064;-64
2022/07/22 12:43:24;;;;;;;5.22;1.98;;;;;;;;;;10286793;28;20060;-63
2022/07/22 12:48:28;;;;;;;3.95;2.13;;;;;;;;;;10296700;28;20076;-63
2022/07/22 12:53:29;;;;;;;8.00;2.00;;;;;;;;;;10293463;28;20075;-64
2022/07/22 12:58:29;;;;;;;3.03;1.95;;;;;;;;;;10282330;28;20069;-65
2022/07/22 13:03:30;;;;;;;4.93;2.20;;;;;;;;;;10283076;28;20458;-64
2022/07/22 13:08:29;;;;;;;6.15;2.30;;;;;;;;;;10286244;28;20088;-63
2022/07/22 13:13:45;;;;;;;7.07;1.98;;;;;;;;;;10284749;28;20069;-64
2022/07/22 13:18:43;;;;;;;4.07;2.40;;;;;;;;;;10294277;28;20083;-65
2022/07/22 13:23:42;;;;;;;9.38;2.53;;;;;;;;;;10286455;28;20332;-63
2022/07/22 13:28:40;;;;;;;5.05;2.70;;;;;;;;;;10285397;28;20067;-64
2022/07/22 13:33:40;;;;;;;15.05;2.78;;;;;;;;;;10264445;28;20076;-64
2022/07/22 13:38:38;;;;;;;5.30;2.20;;;;;;;;;;10256467;28;20073;-63
2022/07/22 13:43:36;;;;;;;4.90;2.10;;;;;;;;;;10257290;28;20068;-63
2022/07/22 13:48:35;;;;;;;9.77;5.03;;;;;;;;;;10257578;28;20079;-64
2022/07/22 13:53:34;;;;;;;8.63;3.00;;;;;;;;;;10264148;28;20140;-63
2022/07/22 13:58:33;;;;;;;5.68;3.00;;;;;;;;;;10252324;28;20113;-64
2022/07/22 14:03:34;;;;;;;3.80;2.60;;;;;;;;;;10259364;28;20080;-64
2022/07/22 14:08:32;;;;;;;6.38;2.33;;;;;;;;;;10253433;28;20092;-65
2022/07/22 14:13:33;;;;;;;9.05;2.80;;;;;;;;;;10252399;28;20541;-65
2022/07/22 14:18:37;;;;;;;14.43;10.13;;;;;;;;;;10256441;28;20064;-64
2022/07/22 14:23:35;;;;;;;4.38;2.40;;;;;;;;;;10251592;28;20490;-64
2022/07/22 14:28:35;;;;;;;8.32;3.20;;;;;;;;;;10255647;28;20077;-64
2022/07/22 14:33:33;;;;;;;6.53;2.13;;;;;;;;;;10253411;28;20082;-63
2022/07/22 14:38:31;;;;;;;7.93;2.83;;;;;;;;;;10256168;28;20076;-64
2022/07/22 14:43:30;;;;;;;12.52;2.60;;;;;;;;;;10256593;28;20083;-64
2022/07/22 14:48:34;;;;;;;10.27;3.53;;;;;;;;;;10249949;28;20080;-64
2022/07/22 14:53:32;;;;;;;6.25;2.72;;;;;;;;;;10254943;28;20061;-64
2022/07/22 14:58:31;;;;;;;8.90;1.67;;;;;;;;;;10245883;28;20507;-64
2022/07/22 15:03:29;;;;;;;4.35;2.83;;;;;;;;;;10258359;28;20079;-64
2022/07/22 15:08:29;;;;;;;4.63;2.55;;;;;;;;;;10235200;28;20065;-65
2022/07/22 15:13:27;;;;;;;5.53;2.63;;;;;;;;;;10244875;28;20068;-64
2022/07/22 15:18:26;;;;;;;4.25;2.50;;;;;;;;;;10255371;28;20541;-64
2022/07/22 15:23:27;;;;;;;7.35;3.03;;;;;;;;;;10249744;28;20077;-64
2022/07/22 15:28:28;;;;;;;5.45;3.25;;;;;;;;;;10236104;28;20096;-64
2022/07/22 15:33:31;;;;;;;6.00;3.38;;;;;;;;;;10255188;28;20533;-64
2022/07/22 15:38:35;;;;;;;6.25;3.20;;;;;;;;;;10251130;28;20076;-65
2022/07/22 15:43:36;;;;;;;3.65;2.42;;;;;;;;;;10244862;28;20091;-65
2022/07/22 15:48:34;;;;;;;6.50;3.03;;;;;;;;;;10248436;28;20073;-65
2022/07/22 15:53:33;;;;;;;4.25;2.60;;;;;;;;;;10243840;28;20065;-64
2022/07/22 16:04:08;;;;;;;10.38;3.50;;;;;;;;;;10252335;28;20083;-64
2022/07/22 16:09:06;;;;;;;8.65;2.63;;;;;;;;;;10254278;28;20710;-65
2022/07/22 16:14:06;;;;;;;7.38;2.42;;;;;;;;;;10254157;28;20079;-64
2022/07/22 16:19:04;;;;;;;15.27;5.13;;;;;;;;;;10249837;28;20096;-64
2022/07/22 16:24:04;;;;;;;6.82;3.75;;;;;;;;;;10259875;28;20069;-64
2022/07/22 16:29:03;;;;;;;13.27;3.72;;;;;;;;;;10254135;28;20076;-64
2022/07/22 16:34:01;;;;;;;13.40;4.65;;;;;;;;;;10248373;28;20491;-65
2022/07/22 16:39:00;;;;;;;9.40;5.05;;;;;;;;;;10245633;28;20073;-64
2022/07/22 16:44:01;;;;;;;13.13;4.40;;;;;;;;;;10239234;28;20067;-65
2022/07/22 16:49:00;;;;;;;7.80;3.90;;;;;;;;;;10260225;28;20076;-64
2022/07/22 16:53:59;;;;;;;8.80;4.97;;;;;;;;;;10247457;28;20053;-64
2022/07/22 16:58:57;;;;;;;9.82;4.28;;;;;;;;;;10240274;28;20065;-62
2022/07/22 17:03:58;;;;;;;17.38;7.53;;;;;;;;;;10244576;28;20072;-62
2022/07/22 17:08:56;;;;;;;15.10;9.90;;;;;;;;;;10265167;28;20076;-63
2022/07/22 17:13:55;;;;;;;9.18;6.43;;;;;;;;;;10265407;28;20053;-62
2022/07/22 17:18:53;;;;;;;18.00;14.40;;;;;;;;;;10269849;28;20091;-62
2022/07/22 17:23:53;;;;;;;7.63;5.15;;;;;;;;;;10252374;28;20121;-62
2022/07/22 17:28:52;;;;;;;13.23;9.95;;;;;;;;;;10250359;28;20529;-62
2022/07/22 17:33:50;;;;;;;7.55;6.78;;;;;;;;;;10255054;28;20099;-63
2022/07/22 17:38:48;;;;;;;7.47;4.60;;;;;;;;;;10254001;28;20079;-62
2022/07/22 17:43:49;;;;;;;15.65;6.22;;;;;;;;;;10252870;28;20065;-62
2022/07/22 17:48:47;;;;;;;5.88;3.90;;;;;;;;;;10252864;28;20068;-62
2022/07/22 17:53:46;;;;;;;10.25;3.85;;;;;;;;;;10251145;28;20076;-62
2022/07/22 17:58:44;;;;;;;11.25;3.42;;;;;;;;;;10258388;28;20089;-62
2022/07/22 18:03:44;;;;;;;7.78;3.42;;;;;;;;;;10255910;28;20499;-62
2022/07/22 18:08:42;;;;;;;8.40;3.25;;;;;;;;;;10259684;28;20084;-63
2022/07/22 18:13:40;;;;;;;4.18;2.78;;;;;;;;;;10258044;28;20073;-62
2022/07/22 18:18:44;;;;;;;7.68;3.85;;;;;;;;;;10255883;28;20434;-62
2022/07/22 18:23:42;;;;;;;7.82;3.55;;;;;;;;;;10250122;28;20088;-64
2022/07/22 18:28:41;;;;;;;7.78;4.20;;;;;;;;;;10262217;28;20073;-61
2022/07/22 18:33:43;;;;;;;9.55;3.75;;;;;;;;;;10258197;28;20073;-63
2022/07/22 18:38:42;;;;;;;7.27;2.73;;;;;;;;;;10256481;28;20080;-61
2022/07/22 18:43:44;;;;;;;5.07;3.85;;;;;;;;;;10254782;28;20344;-62
2022/07/22 18:48:44;;;;;;;11.98;4.50;;;;;;;;;;10261868;28;20091;-62
2022/07/22 18:53:43;;;;;;;7.97;4.85;;;;;;;;;;10247501;28;20579;-63
2022/07/22 18:58:41;;;;;;;46.05;21.98;;;;;;;;;;10264142;28;20068;-63
2022/07/22 19:03:40;;;;;;;25.73;10.60;;;;;;;;;;10247979;28;20518;-62
2022/07/22 19:08:40;;;;;;;8.25;4.13;;;;;;;;;;10250672;28;20087;-63
2022/07/22 19:13:38;;;;;;;16.35;3.58;;;;;;;;;;10252292;28;20072;-63
2022/07/22 19:18:36;;;;;;;3.85;2.67;;;;;;;;;;10252233;28;20083;-63
2022/07/22 19:23:35;;;;;;;7.57;3.88;;;;;;;;;;10244041;28;20079;-63
2022/07/22 19:28:35;;;;;;;6.20;3.08;;;;;;;;;;10255525;28;20076;-63
2022/07/22 19:33:33;;;;;;;7.22;4.13;;;;;;;;;;10255387;28;20076;-63
2022/07/22 19:38:32;;;;;;;9.60;3.45;;;;;;;;;;10247545;28;20088;-62
2022/07/22 19:43:31;;;;;;;9.27;3.40;;;;;;;;;;10248494;28;20080;-62
2022/07/22 19:48:31;;;;;;;3.13;2.42;;;;;;;;;;10265832;28;20100;-63
2022/07/22 19:53:29;;;;;;;3.90;2.28;;;;;;;;;;10259987;28;20077;-62
2022/07/22 19:58:28;;;;;;;13.75;3.05;;;;;;;;;;10263349;28;20076;-63
2022/07/22 20:03:26;;;;;;;5.95;2.92;;;;;;;;;;10246490;28;20073;-63
2022/07/22 20:08:26;;;;;;;6.22;2.60;;;;;;;;;;10245452;28;20535;-62
2022/07/22 20:13:24;;;;;;;10.05;2.65;;;;;;;;;;10248402;28;20073;-61
2022/07/22 20:18:22;;;;;;;7.70;2.75;;;;;;;;;;10252675;28;20065;-63
2022/07/22 20:23:23;;;;;;;9.07;2.53;;;;;;;;;;10253209;28;20064;-63
2022/07/22 20:28:23;;;;;;;6.18;2.50;;;;;;;;;;10256535;28;20476;-63
2022/07/22 20:33:21;;;;;;;6.93;2.33;;;;;;;;;;10256108;28;20605;-62
2022/07/22 20:38:19;;;;;;;8.38;3.05;;;;;;;;;;10251464;28;20071;-61
2022/07/22 20:43:17;;;;;;;7.70;2.67;;;;;;;;;;10264894;28;20073;-62
2022/07/22 20:48:17;;;;;;;7.50;2.75;;;;;;;;;;10261717;28;20076;-62
2022/07/22 20:53:15;;;;;;;7.30;2.25;;;;;;;;;;10258380;28;20065;-63
2022/07/22 20:58:14;;;;;;;10.05;2.63;;;;;;;;;;10272877;28;20473;-62
2022/07/22 21:03:13;;;;;;;3.65;2.70;;;;;;;;;;10261454;28;20064;-64
2022/07/22 21:08:13;;;;;;;6.25;2.67;;;;;;;;;;10258559;28;20463;-63
2022/07/22 21:13:11;;;;;;;19.00;3.22;;;;;;;;;;10258705;28;20076;-62
2022/07/22 21:18:14;;;;;;;6.32;2.42;;;;;;;;;;10258218;28;20068;-63
2022/07/22 21:23:14;;;;;;;8.48;2.55;;;;;;;;;;10255733;28;20553;-63
2022/07/22 21:28:13;;;;;;;8.88;2.78;;;;;;;;;;10261540;28;20490;-64
2022/07/22 21:33:11;;;;;;;6.97;2.33;;;;;;;;;;10260955;28;20462;-63
2022/07/22 21:38:09;;;;;;;3.38;2.42;;;;;;;;;;10259157;28;20071;-62
2022/07/22 21:43:09;;;;;;;6.97;2.53;;;;;;;;;;10257743;28;20183;-63
2022/07/22 21:48:07;;;;;;;8.13;2.50;;;;;;;;;;10268659;28;20558;-63
2022/07/22 21:53:05;;;;;;;7.00;2.42;;;;;;;;;;10255489;28;20113;-63
2022/07/22 21:58:04;;;;;;;6.22;2.95;;;;;;;;;;10259333;28;20081;-64
2022/07/22 22:03:03;;;;;;;6.03;2.75;;;;;;;;;;10254515;28;20465;-63
2022/07/22 22:08:02;;;;;;;5.88;2.55;;;;;;;;;;10253772;28;20057;-63
2022/07/22 22:13:00;;;;;;;4.65;2.50;;;;;;;;;;10253386;28;20076;-63
2022/07/22 22:17:58;;;;;;;7.60;3.45;;;;;;;;;;10259173;28;20463;-63
2022/07/22 22:22:58;;;;;;;6.13;2.30;;;;;;;;;;10255910;28;20092;-63
2022/07/22 22:27:56;;;;;;;6.82;2.38;;;;;;;;;;10251491;28;20052;-62
2022/07/22 22:32:54;;;;;;;9.70;2.25;;;;;;;;;;10237440;28;20065;-63
2022/07/22 22:37:53;;;;;;;6.70;2.88;;;;;;;;;;10260387;28;20080;-63
2022/07/22 22:42:52;;;;;;;7.68;2.42;;;;;;;;;;10255386;28;20077;-62
2022/07/22 22:47:51;;;;;;;6.47;2.30;;;;;;;;;;10256544;28;20079;-63
2022/07/22 22:52:49;;;;;;;2.90;2.60;;;;;;;;;;10255506;28;20474;-62
2022/07/22 22:57:48;;;;;;;9.70;3.17;;;;;;;;;;10254817;28;20064;-63
2022/07/22 23:02:47;;;;;;;3.47;2.13;;;;;;;;;;10255285;28;20104;-63
2022/07/22 23:07:46;;;;;;;4.80;2.35;;;;;;;;;;10254132;28;20076;-63
2022/07/22 23:12:45;;;;;;;3.78;2.45;;;;;;;;;;10250057;28;20565;-62
2022/07/22 23:17:43;;;;;;;7.72;2.22;;;;;;;;;;10254495;28;20077;-62
2022/07/22 23:22:43;;;;;;;5.50;2.40;;;;;;;;;;10248852;28;20076;-62
2022/07/22 23:27:42;;;;;;;2.33;1.70;;;;;;;;;;10253544;28;20471;-62
2022/07/22 23:32:40;;;;;;;4.28;2.85;;;;;;;;;;10254617;28;20483;-62
2022/07/22 23:37:39;;;;;;;10.18;3.28;;;;;;;;;;10252720;28;20065;-63
2022/07/22 23:42:38;;;;;;;3.38;2.55;;;;;;;;;;10251932;28;20484;-62
2022/07/22 23:47:37;;;;;;;5.03;2.25;;;;;;;;;;10253515;28;20171;-63
2022/07/22 23:52:35;;;;;;;6.55;2.40;;;;;;;;;;10253375;28;20078;-63
2022/07/22 23:57:33;;;;;;;4.13;2.20;;;;;;;;;;10253356;28;20100;-63
